sensor_id;sensor_type;location;lat;lon;timestamp;pressure;altitude;pressure_sealevel;temperature;humidity
64292;BME280;50628;51.008;13.658;2022-12-18T00:04:30;101257.31;;;-9.26;100.00
64292;BME280;50628;51.008;13.658;2022-12-18T00:09:32;101269.84;;;-9.29;100.00
64292;BME280;50628;51.008;13.658;2022-12-18T00:14:35;101283.44;;;-9.22;100.00
64292;BME280;50628;51.008;13.658;2022-12-18T00:19:37;101289.38;;;-9.22;100.00
64292;BME280;50628;51.008;13.658;2022-12-18T00:24:39;101279.81;;;-9.67;100.00
64292;BME280;50628;51.008;13.658;2022-12-18T00:29:42;101277.03;;;-10.06;100.00
64292;BME280;50628;51.008;13.658;2022-12-18T00:34:44;101284.84;;;-9.67;100.00
64292;BME280;50628;51.008;13.658;2022-12-18T00:39:48;101284.66;;;-9.41;100.00
64292;BME280;50628;51.008;13.658;2022-12-18T00:44:51;101292.34;;;-9.37;100.00
64292;BME280;50628;51.008;13.658;2022-12-18T00:49:53;101294.06;;;-10.29;100.00
64292;BME280;50628;51.008;13.658;2022-12-18T00:54:54;101301.16;;;-9.84;100.00
64292;BME280;50628;51.008;13.658;2022-12-18T00:59:58;101311.81;;;-9.63;100.00
64292;BME280;50628;51.008;13.658;2022-12-18T01:05:00;101312.72;;;-9.91;100.00
64292;BME280;50628;51.008;13.658;2022-12-18T01:10:01;101321.38;;;-10.11;100.00
64292;BME280;50628;51.008;13.658;2022-12-18T01:15:07;101327.72;;;-9.95;100.00
64292;BME280;50628;51.008;13.658;2022-12-18T01:20:12;101328.19;;;-9.78;100.00
64292;BME280;50628;51.008;13.658;2022-12-18T01:25:13;101320.25;;;-10.23;100.00
64292;BME280;50628;51.008;13.658;2022-12-18T01:30:17;101329.78;;;-10.41;100.00
64292;BME280;50628;51.008;13.658;2022-12-18T01:35:19;101324.88;;;-10.36;100.00
64292;BME280;50628;51.008;13.658;2022-12-18T01:40:21;101327.84;;;-10.50;100.00
64292;BME280;50628;51.008;13.658;2022-12-18T01:45:28;101319.28;;;-10.26;100.00
64292;BME280;50628;51.008;13.658;2022-12-18T01:50:33;101319.38;;;-10.23;100.00
64292;BME280;50628;51.008;13.658;2022-12-18T01:55:39;101324.09;;;-10.62;100.00
64292;BME280;50628;51.008;13.658;2022-12-18T02:00:45;101332.78;;;-10.80;100.00
64292;BME280;50628;51.008;13.658;2022-12-18T02:05:50;101333.72;;;-10.49;100.00
64292;BME280;50628;51.008;13.658;2022-12-18T02:11:05;101334.66;;;-10.17;100.00
64292;BME280;50628;51.008;13.658;2022-12-18T02:16:16;101317.75;;;-9.92;100.00
64292;BME280;50628;51.008;13.658;2022-12-18T02:21:28;101317.31;;;-9.77;100.00
64292;BME280;50628;51.008;13.658;2022-12-18T02:26:37;101336.94;;;-10.53;100.00
64292;BME280;50628;51.008;13.658;2022-12-18T02:31:44;101349.59;;;-10.52;100.00
64292;BME280;50628;51.008;13.658;2022-12-18T02:36:48;101347.66;;;-10.60;100.00
64292;BME280;50628;51.008;13.658;2022-12-18T02:41:53;101349.31;;;-10.86;100.00
64292;BME280;50628;51.008;13.658;2022-12-18T02:46:58;101346.28;;;-10.76;100.00
64292;BME280;50628;51.008;13.658;2022-12-18T02:52:05;101345.09;;;-10.33;100.00
64292;BME280;50628;51.008;13.658;2022-12-18T02:57:16;101345.44;;;-10.21;100.00
64292;BME280;50628;51.008;13.658;2022-12-18T03:02:23;101330.34;;;-10.77;100.00
64292;BME280;50628;51.008;13.658;2022-12-18T03:07:33;101347.50;;;-10.65;100.00
64292;BME280;50628;51.008;13.658;2022-12-18T03:12:44;101355.63;;;-10.99;100.00
64292;BME280;50628;51.008;13.658;2022-12-18T03:17:54;101356.69;;;-11.42;100.00
64292;BME280;50628;51.008;13.658;2022-12-18T03:23:04;101346.28;;;-11.03;100.00
64292;BME280;50628;51.008;13.658;2022-12-18T03:28:14;101354.66;;;-10.77;100.00
64292;BME280;50628;51.008;13.658;2022-12-18T03:33:21;101358.59;;;-11.11;100.00
64292;BME280;50628;51.008;13.658;2022-12-18T03:38:28;101349.28;;;-10.88;100.00
64292;BME280;50628;51.008;13.658;2022-12-18T03:43:42;101357.72;;;-10.86;100.00
64292;BME280;50628;51.008;13.658;2022-12-18T03:48:52;101359.03;;;-10.97;100.00
64292;BME280;50628;51.008;13.658;2022-12-18T03:53:58;101361.50;;;-10.99;100.00
64292;BME280;50628;51.008;13.658;2022-12-18T03:59:12;101356.47;;;-10.73;100.00
64292;BME280;50628;51.008;13.658;2022-12-18T04:04:17;101371.31;;;-11.06;100.00
64292;BME280;50628;51.008;13.658;2022-12-18T04:09:20;101378.81;;;-11.32;100.00
64292;BME280;50628;51.008;13.658;2022-12-18T04:14:25;101379.75;;;-11.04;100.00
64292;BME280;50628;51.008;13.658;2022-12-18T04:19:30;101386.34;;;-11.08;100.00
64292;BME280;50628;51.008;13.658;2022-12-18T04:24:33;101377.72;;;-10.91;100.00
64292;BME280;50628;51.008;13.658;2022-12-18T04:29:46;101387.38;;;-10.77;100.00
64292;BME280;50628;51.008;13.658;2022-12-18T04:34:49;101384.19;;;-10.72;100.00
64292;BME280;50628;51.008;13.658;2022-12-18T04:39:51;101388.13;;;-10.80;100.00
64292;BME280;50628;51.008;13.658;2022-12-18T04:45:07;101397.34;;;-11.04;100.00
64292;BME280;50628;51.008;13.658;2022-12-18T04:50:09;101415.34;;;-11.18;100.00
64292;BME280;50628;51.008;13.658;2022-12-18T04:55:11;101406.97;;;-10.93;100.00
64292;BME280;50628;51.008;13.658;2022-12-18T05:00:15;101393.19;;;-11.04;100.00
64292;BME280;50628;51.008;13.658;2022-12-18T05:05:17;101395.31;;;-10.91;100.00
64292;BME280;50628;51.008;13.658;2022-12-18T05:10:19;101393.66;;;-10.90;100.00
64292;BME280;50628;51.008;13.658;2022-12-18T05:15:22;101400.84;;;-11.25;100.00
64292;BME280;50628;51.008;13.658;2022-12-18T05:20:25;101396.91;;;-11.18;100.00
64292;BME280;50628;51.008;13.658;2022-12-18T05:25:27;101401.50;;;-11.30;100.00
64292;BME280;50628;51.008;13.658;2022-12-18T05:30:30;101409.16;;;-11.27;100.00
64292;BME280;50628;51.008;13.658;2022-12-18T05:35:32;101398.53;;;-11.19;100.00
64292;BME280;50628;51.008;13.658;2022-12-18T05:40:34;101398.75;;;-11.13;100.00
64292;BME280;50628;51.008;13.658;2022-12-18T05:45:39;101402.09;;;-11.38;100.00
64292;BME280;50628;51.008;13.658;2022-12-18T05:50:42;101400.91;;;-11.23;100.00
64292;BME280;50628;51.008;13.658;2022-12-18T05:55:44;101400.63;;;-11.55;100.00
64292;BME280;50628;51.008;13.658;2022-12-18T06:00:47;101413.81;;;-11.38;100.00
64292;BME280;50628;51.008;13.658;2022-12-18T06:05:49;101416.59;;;-11.30;100.00
64292;BME280;50628;51.008;13.658;2022-12-18T06:10:52;101422.84;;;-11.43;100.00
64292;BME280;50628;51.008;13.658;2022-12-18T06:15:55;101433.28;;;-11.55;100.00
64292;BME280;50628;51.008;13.658;2022-12-18T06:20:57;101435.69;;;-11.58;100.00
64292;BME280;50628;51.008;13.658;2022-12-18T06:26:04;101447.22;;;-11.41;100.00
64292;BME280;50628;51.008;13.658;2022-12-18T06:31:08;101442.97;;;-11.42;100.00
64292;BME280;50628;51.008;13.658;2022-12-18T06:36:12;101447.50;;;-11.33;100.00
64292;BME280;50628;51.008;13.658;2022-12-18T06:41:16;101433.38;;;-11.29;100.00
64292;BME280;50628;51.008;13.658;2022-12-18T06:46:20;101440.94;;;-11.52;100.00
64292;BME280;50628;51.008;13.658;2022-12-18T06:51:23;101453.75;;;-11.68;100.00
64292;BME280;50628;51.008;13.658;2022-12-18T06:56:26;101448.16;;;-11.61;100.00
64292;BME280;50628;51.008;13.658;2022-12-18T07:01:29;101463.53;;;-11.52;100.00
64292;BME280;50628;51.008;13.658;2022-12-18T07:06:31;101470.91;;;-11.57;100.00
64292;BME280;50628;51.008;13.658;2022-12-18T07:11:33;101473.19;;;-11.63;100.00
64292;BME280;50628;51.008;13.658;2022-12-18T07:16:37;101466.75;;;-11.56;100.00
64292;BME280;50628;51.008;13.658;2022-12-18T07:21:39;101479.88;;;-11.41;100.00
64292;BME280;50628;51.008;13.658;2022-12-18T07:26:41;101471.31;;;-11.46;100.00
64292;BME280;50628;51.008;13.658;2022-12-18T07:31:44;101475.63;;;-11.42;100.00
64292;BME280;50628;51.008;13.658;2022-12-18T07:36:46;101489.22;;;-11.37;100.00
64292;BME280;50628;51.008;13.658;2022-12-18T07:41:48;101492.34;;;-11.66;100.00
64292;BME280;50628;51.008;13.658;2022-12-18T07:47:11;101494.84;;;-11.66;100.00
64292;BME280;50628;51.008;13.658;2022-12-18T07:52:13;101500.31;;;-11.54;100.00
64292;BME280;50628;51.008;13.658;2022-12-18T07:57:15;101501.66;;;-11.41;100.00
64292;BME280;50628;51.008;13.658;2022-12-18T08:02:18;101500.56;;;-11.48;100.00
64292;BME280;50628;51.008;13.658;2022-12-18T08:07:20;101505.59;;;-11.48;100.00
64292;BME280;50628;51.008;13.658;2022-12-18T08:12:22;101492.03;;;-11.51;100.00
64292;BME280;50628;51.008;13.658;2022-12-18T08:17:25;101488.34;;;-11.39;100.00
64292;BME280;50628;51.008;13.658;2022-12-18T08:22:27;101479.97;;;-11.15;100.00
64292;BME280;50628;51.008;13.658;2022-12-18T08:27:29;101485.31;;;-11.06;100.00
64292;BME280;50628;51.008;13.658;2022-12-18T08:32:32;101491.31;;;-11.02;100.00
64292;BME280;50628;51.008;13.658;2022-12-18T08:37:34;101483.91;;;-10.74;100.00
64292;BME280;50628;51.008;13.658;2022-12-18T08:42:36;101490.94;;;-10.63;100.00
64292;BME280;50628;51.008;13.658;2022-12-18T08:47:56;101485.81;;;-10.41;100.00
64292;BME280;50628;51.008;13.658;2022-12-18T08:52:58;101489.00;;;-10.47;100.00
64292;BME280;50628;51.008;13.658;2022-12-18T08:58:00;101483.88;;;-10.23;100.00
64292;BME280;50628;51.008;13.658;2022-12-18T09:03:03;101493.25;;;-9.91;100.00
64292;BME280;50628;51.008;13.658;2022-12-18T09:08:05;101482.09;;;-9.71;100.00
64292;BME280;50628;51.008;13.658;2022-12-18T09:13:07;101482.00;;;-9.47;100.00
64292;BME280;50628;51.008;13.658;2022-12-18T09:18:11;101507.59;;;-9.62;100.00
64292;BME280;50628;51.008;13.658;2022-12-18T09:23:13;101516.19;;;-9.26;100.00
64292;BME280;50628;51.008;13.658;2022-12-18T09:28:16;101521.13;;;-9.01;100.00
64292;BME280;50628;51.008;13.658;2022-12-18T09:33:20;101516.28;;;-8.61;100.00
64292;BME280;50628;51.008;13.658;2022-12-18T09:38:22;101517.88;;;-8.30;100.00
64292;BME280;50628;51.008;13.658;2022-12-18T09:43:26;101505.06;;;-8.03;100.00
64292;BME280;50628;51.008;13.658;2022-12-18T09:48:34;101503.06;;;-7.80;100.00
64292;BME280;50628;51.008;13.658;2022-12-18T09:53:38;101497.69;;;-7.56;100.00
64292;BME280;50628;51.008;13.658;2022-12-18T09:58:46;101490.31;;;-7.47;100.00
64292;BME280;50628;51.008;13.658;2022-12-18T10:03:52;101484.22;;;-7.14;100.00
64292;BME280;50628;51.008;13.658;2022-12-18T10:08:59;101470.97;;;-7.01;100.00
64292;BME280;50628;51.008;13.658;2022-12-18T10:14:09;101457.97;;;-6.73;100.00
64292;BME280;50628;51.008;13.658;2022-12-18T10:19:24;101445.66;;;-6.55;100.00
64292;BME280;50628;51.008;13.658;2022-12-18T10:24:33;101422.31;;;-6.36;100.00
64292;BME280;50628;51.008;13.658;2022-12-18T10:29:39;101430.03;;;-6.29;100.00
64292;BME280;50628;51.008;13.658;2022-12-18T10:34:44;101414.41;;;-5.99;100.00
64292;BME280;50628;51.008;13.658;2022-12-18T10:40:06;101405.25;;;-5.85;100.00
64292;BME280;50628;51.008;13.658;2022-12-18T10:45:10;101393.84;;;-5.51;100.00
64292;BME280;50628;51.008;13.658;2022-12-18T10:50:25;101388.28;;;-5.20;100.00
64292;BME280;50628;51.008;13.658;2022-12-18T10:55:32;101394.34;;;-5.05;100.00
64292;BME280;50628;51.008;13.658;2022-12-18T11:00:35;101393.13;;;-4.52;100.00
64292;BME280;50628;51.008;13.658;2022-12-18T11:05:39;101390.59;;;-4.52;100.00
64292;BME280;50628;51.008;13.658;2022-12-18T11:10:46;101394.00;;;-4.50;100.00
64292;BME280;50628;51.008;13.658;2022-12-18T11:15:49;101376.25;;;-4.42;100.00
64292;BME280;50628;51.008;13.658;2022-12-18T11:20:56;101366.28;;;-4.13;100.00
64292;BME280;50628;51.008;13.658;2022-12-18T11:26:00;101362.22;;;-3.74;100.00
64292;BME280;50628;51.008;13.658;2022-12-18T11:31:19;101356.38;;;-3.52;100.00
64292;BME280;50628;51.008;13.658;2022-12-18T11:36:23;101339.50;;;-3.14;100.00
64292;BME280;50628;51.008;13.658;2022-12-18T11:41:27;101348.84;;;-2.96;100.00
64292;BME280;50628;51.008;13.658;2022-12-18T11:46:49;101344.59;;;-2.80;100.00
64292;BME280;50628;51.008;13.658;2022-12-18T11:51:59;101351.38;;;-2.46;100.00
64292;BME280;50628;51.008;13.658;2022-12-18T11:57:07;101358.13;;;-2.14;100.00
64292;BME280;50628;51.008;13.658;2022-12-18T12:02:24;101360.72;;;-2.35;100.00
64292;BME280;50628;51.008;13.658;2022-12-18T12:07:38;101359.84;;;-2.24;100.00
64292;BME280;50628;51.008;13.658;2022-12-18T12:12:57;101371.69;;;-1.89;100.00
64292;BME280;50628;51.008;13.658;2022-12-18T12:18:06;101367.41;;;-1.85;100.00
64292;BME280;50628;51.008;13.658;2022-12-18T12:23:17;101374.19;;;-1.78;100.00
64292;BME280;50628;51.008;13.658;2022-12-18T12:28:31;101374.94;;;-1.53;100.00
64292;BME280;50628;51.008;13.658;2022-12-18T12:33:45;101379.03;;;-1.20;100.00
64292;BME280;50628;51.008;13.658;2022-12-18T12:38:52;101385.88;;;-1.25;100.00
64292;BME280;50628;51.008;13.658;2022-12-18T12:43:58;101388.78;;;-2.22;100.00
64292;BME280;50628;51.008;13.658;2022-12-18T12:49:04;101379.44;;;-2.67;100.00
64292;BME280;50628;51.008;13.658;2022-12-18T12:54:15;101370.06;;;-2.30;100.00
64292;BME280;50628;51.008;13.658;2022-12-18T12:59:24;101370.81;;;-1.88;100.00
64292;BME280;50628;51.008;13.658;2022-12-18T13:04:34;101373.41;;;-2.02;100.00
64292;BME280;50628;51.008;13.658;2022-12-18T13:10:13;101359.72;;;-1.79;100.00
64292;BME280;50628;51.008;13.658;2022-12-18T13:15:21;101364.88;;;-1.94;100.00
64292;BME280;50628;51.008;13.658;2022-12-18T13:20:33;101359.81;;;-2.08;100.00
64292;BME280;50628;51.008;13.658;2022-12-18T13:25:37;101367.56;;;-2.59;100.00
64292;BME280;50628;51.008;13.658;2022-12-18T13:30:53;101377.69;;;-2.13;100.00
64292;BME280;50628;51.008;13.658;2022-12-18T13:36:03;101365.75;;;-2.00;100.00
64292;BME280;50628;51.008;13.658;2022-12-18T13:41:25;101372.56;;;-2.07;100.00
64292;BME280;50628;51.008;13.658;2022-12-18T13:46:29;101360.56;;;-1.71;100.00
64292;BME280;50628;51.008;13.658;2022-12-18T13:51:41;101353.78;;;-0.49;100.00
64292;BME280;50628;51.008;13.658;2022-12-18T13:56:47;101369.06;;;-0.42;100.00
64292;BME280;50628;51.008;13.658;2022-12-18T14:01:52;101355.84;;;-0.92;99.67
64292;BME280;50628;51.008;13.658;2022-12-18T14:07:06;101365.56;;;-1.54;100.00
64292;BME280;50628;51.008;13.658;2022-12-18T14:12:16;101363.25;;;-2.26;100.00
64292;BME280;50628;51.008;13.658;2022-12-18T14:17:34;101367.50;;;-2.42;100.00
64292;BME280;50628;51.008;13.658;2022-12-18T14:22:37;101368.34;;;-3.11;100.00
64292;BME280;50628;51.008;13.658;2022-12-18T14:27:46;101356.44;;;-3.18;100.00
64292;BME280;50628;51.008;13.658;2022-12-18T14:32:59;101344.50;;;-3.51;100.00
64292;BME280;50628;51.008;13.658;2022-12-18T14:38:20;101335.13;;;-3.67;100.00
64292;BME280;50628;51.008;13.658;2022-12-18T14:43:25;101345.16;;;-3.98;100.00
64292;BME280;50628;51.008;13.658;2022-12-18T14:48:36;101343.56;;;-3.79;100.00
64292;BME280;50628;51.008;13.658;2022-12-18T14:53:41;101346.91;;;-3.83;100.00
64292;BME280;50628;51.008;13.658;2022-12-18T14:58:47;101347.59;;;-4.23;100.00
64292;BME280;50628;51.008;13.658;2022-12-18T15:03:51;101348.25;;;-4.47;100.00
64292;BME280;50628;51.008;13.658;2022-12-18T15:08:53;101350.94;;;-4.27;100.00
64292;BME280;50628;51.008;13.658;2022-12-18T15:13:57;101338.94;;;-4.49;100.00
64292;BME280;50628;51.008;13.658;2022-12-18T15:19:00;101352.47;;;-4.52;100.00
64292;BME280;50628;51.008;13.658;2022-12-18T15:24:02;101345.69;;;-4.56;100.00
64292;BME280;50628;51.008;13.658;2022-12-18T15:29:18;101337.13;;;-4.67;100.00
64292;BME280;50628;51.008;13.658;2022-12-18T15:34:21;101324.94;;;-5.05;100.00
64292;BME280;50628;51.008;13.658;2022-12-18T15:39:24;101317.31;;;-5.07;100.00
64292;BME280;50628;51.008;13.658;2022-12-18T15:44:27;101327.28;;;-5.28;100.00
64292;BME280;50628;51.008;13.658;2022-12-18T15:49:29;101326.28;;;-5.43;100.00
64292;BME280;50628;51.008;13.658;2022-12-18T15:54:31;101337.88;;;-5.66;100.00
64292;BME280;50628;51.008;13.658;2022-12-18T15:59:52;101328.16;;;-6.02;100.00
64292;BME280;50628;51.008;13.658;2022-12-18T16:04:56;101327.28;;;-6.06;100.00
64292;BME280;50628;51.008;13.658;2022-12-18T16:09:57;101318.69;;;-6.16;100.00
64292;BME280;50628;51.008;13.658;2022-12-18T16:15:01;101316.97;;;-6.20;100.00
64292;BME280;50628;51.008;13.658;2022-12-18T16:20:04;101315.31;;;-6.16;100.00
64292;BME280;50628;51.008;13.658;2022-12-18T16:25:08;101324.53;;;-6.21;100.00
64292;BME280;50628;51.008;13.658;2022-12-18T16:30:14;101311.75;;;-6.32;100.00
64292;BME280;50628;51.008;13.658;2022-12-18T16:35:17;101317.50;;;-6.41;100.00
64292;BME280;50628;51.008;13.658;2022-12-18T16:40:19;101313.28;;;-6.40;100.00
64292;BME280;50628;51.008;13.658;2022-12-18T16:45:22;101314.91;;;-6.45;100.00
64292;BME280;50628;51.008;13.658;2022-12-18T16:50:27;101317.53;;;-6.39;100.00
64292;BME280;50628;51.008;13.658;2022-12-18T16:55:28;101309.06;;;-6.41;100.00
64292;BME280;50628;51.008;13.658;2022-12-18T17:00:32;101303.13;;;-6.43;100.00
64292;BME280;50628;51.008;13.658;2022-12-18T17:05:34;101299.81;;;-6.38;100.00
64292;BME280;50628;51.008;13.658;2022-12-18T17:10:35;101302.25;;;-6.47;100.00
64292;BME280;50628;51.008;13.658;2022-12-18T17:15:39;101294.53;;;-6.53;100.00
64292;BME280;50628;51.008;13.658;2022-12-18T17:20:40;101290.34;;;-6.51;100.00
64292;BME280;50628;51.008;13.658;2022-12-18T17:25:42;101288.56;;;-6.60;100.00
64292;BME280;50628;51.008;13.658;2022-12-18T17:30:46;101284.19;;;-6.70;100.00
64292;BME280;50628;51.008;13.658;2022-12-18T17:35:48;101288.94;;;-6.88;100.00
64292;BME280;50628;51.008;13.658;2022-12-18T17:40:50;101281.53;;;-6.78;100.00
64292;BME280;50628;51.008;13.658;2022-12-18T17:45:53;101287.34;;;-6.85;100.00
64292;BME280;50628;51.008;13.658;2022-12-18T17:51:00;101272.84;;;-6.93;100.00
64292;BME280;50628;51.008;13.658;2022-12-18T17:56:02;101261.78;;;-6.99;100.00
64292;BME280;50628;51.008;13.658;2022-12-18T18:01:07;101275.28;;;-7.00;100.00
64292;BME280;50628;51.008;13.658;2022-12-18T18:06:09;101266.91;;;-6.97;100.00
64292;BME280;50628;51.008;13.658;2022-12-18T18:11:12;101261.63;;;-7.09;100.00
64292;BME280;50628;51.008;13.658;2022-12-18T18:16:36;101260.19;;;-6.95;100.00
64292;BME280;50628;51.008;13.658;2022-12-18T18:21:40;101254.19;;;-7.00;100.00
64292;BME280;50628;51.008;13.658;2022-12-18T18:26:44;101255.22;;;-6.87;100.00
64292;BME280;50628;51.008;13.658;2022-12-18T18:31:48;101255.31;;;-6.81;100.00
64292;BME280;50628;51.008;13.658;2022-12-18T18:36:51;101252.00;;;-6.77;100.00
64292;BME280;50628;51.008;13.658;2022-12-18T18:41:53;101235.16;;;-6.73;100.00
64292;BME280;50628;51.008;13.658;2022-12-18T18:46:58;101230.66;;;-6.93;100.00
64292;BME280;50628;51.008;13.658;2022-12-18T18:52:00;101225.94;;;-6.70;100.00
64292;BME280;50628;51.008;13.658;2022-12-18T18:57:02;101234.19;;;-6.85;100.00
64292;BME280;50628;51.008;13.658;2022-12-18T19:02:08;101208.13;;;-6.76;100.00
64292;BME280;50628;51.008;13.658;2022-12-18T19:07:11;101198.00;;;-6.78;100.00
64292;BME280;50628;51.008;13.658;2022-12-18T19:12:13;101204.09;;;-6.62;100.00
64292;BME280;50628;51.008;13.658;2022-12-18T19:17:33;101187.16;;;-6.66;100.00
64292;BME280;50628;51.008;13.658;2022-12-18T19:22:36;101177.94;;;-6.61;100.00
64292;BME280;50628;51.008;13.658;2022-12-18T19:27:38;101174.72;;;-6.49;100.00
64292;BME280;50628;51.008;13.658;2022-12-18T19:32:41;101159.50;;;-6.50;100.00
64292;BME280;50628;51.008;13.658;2022-12-18T19:37:43;101144.22;;;-6.57;100.00
64292;BME280;50628;51.008;13.658;2022-12-18T19:42:45;101140.09;;;-6.48;100.00
64292;BME280;50628;51.008;13.658;2022-12-18T19:47:48;101133.56;;;-6.29;100.00
64292;BME280;50628;51.008;13.658;2022-12-18T19:52:50;101136.06;;;-6.31;100.00
64292;BME280;50628;51.008;13.658;2022-12-18T19:57:52;101127.56;;;-6.36;100.00
64292;BME280;50628;51.008;13.658;2022-12-18T20:02:55;101130.06;;;-6.38;100.00
64292;BME280;50628;51.008;13.658;2022-12-18T20:07:57;101128.38;;;-6.42;100.00
64292;BME280;50628;51.008;13.658;2022-12-18T20:12:59;101112.31;;;-6.41;100.00
64292;BME280;50628;51.008;13.658;2022-12-18T20:18:03;101114.25;;;-6.15;100.00
64292;BME280;50628;51.008;13.658;2022-12-18T20:23:05;101127.69;;;-6.25;100.00
64292;BME280;50628;51.008;13.658;2022-12-18T20:28:06;101117.69;;;-6.15;100.00
64292;BME280;50628;51.008;13.658;2022-12-18T20:33:10;101126.16;;;-6.10;100.00
64292;BME280;50628;51.008;13.658;2022-12-18T20:38:11;101124.38;;;-6.20;100.00
64292;BME280;50628;51.008;13.658;2022-12-18T20:43:13;101098.38;;;-5.97;100.00
64292;BME280;50628;51.008;13.658;2022-12-18T20:48:16;101081.50;;;-5.95;100.00
64292;BME280;50628;51.008;13.658;2022-12-18T20:53:18;101097.69;;;-5.75;100.00
64292;BME280;50628;51.008;13.658;2022-12-18T20:58:20;101092.59;;;-5.79;100.00
64292;BME280;50628;51.008;13.658;2022-12-18T21:03:23;101098.44;;;-5.90;100.00
64292;BME280;50628;51.008;13.658;2022-12-18T21:08:25;101083.25;;;-5.83;100.00
64292;BME280;50628;51.008;13.658;2022-12-18T21:13:27;101084.03;;;-5.91;100.00
64292;BME280;50628;51.008;13.658;2022-12-18T21:18:30;101088.41;;;-5.76;100.00
64292;BME280;50628;51.008;13.658;2022-12-18T21:23:32;101083.28;;;-5.82;100.00
64292;BME280;50628;51.008;13.658;2022-12-18T21:28:35;101086.66;;;-5.81;100.00
64292;BME280;50628;51.008;13.658;2022-12-18T21:33:38;101087.53;;;-5.75;100.00
64292;BME280;50628;51.008;13.658;2022-12-18T21:38:40;101077.56;;;-5.53;100.00
64292;BME280;50628;51.008;13.658;2022-12-18T21:43:42;101079.38;;;-5.32;100.00
64292;BME280;50628;51.008;13.658;2022-12-18T21:49:04;101077.66;;;-5.38;100.00
64292;BME280;50628;51.008;13.658;2022-12-18T21:54:06;101071.72;;;-5.40;100.00
64292;BME280;50628;51.008;13.658;2022-12-18T21:59:08;101048.03;;;-5.44;100.00
64292;BME280;50628;51.008;13.658;2022-12-18T22:04:12;101058.16;;;-5.47;100.00
64292;BME280;50628;51.008;13.658;2022-12-18T22:09:16;101066.66;;;-5.37;100.00
64292;BME280;50628;51.008;13.658;2022-12-18T22:14:19;101061.63;;;-5.34;100.00
64292;BME280;50628;51.008;13.658;2022-12-18T22:19:24;101051.44;;;-5.37;100.00
64292;BME280;50628;51.008;13.658;2022-12-18T22:24:26;101048.88;;;-5.46;100.00
64292;BME280;50628;51.008;13.658;2022-12-18T22:29:29;101044.75;;;-5.26;100.00
64292;BME280;50628;51.008;13.658;2022-12-18T22:34:50;101030.38;;;-5.24;100.00
64292;BME280;50628;51.008;13.658;2022-12-18T22:39:52;101032.94;;;-5.20;100.00
64292;BME280;50628;51.008;13.658;2022-12-18T22:44:54;101019.56;;;-4.70;100.00
64292;BME280;50628;51.008;13.658;2022-12-18T22:49:57;101000.09;;;-4.59;100.00
64292;BME280;50628;51.008;13.658;2022-12-18T22:54:59;100996.72;;;-4.41;100.00
64292;BME280;50628;51.008;13.658;2022-12-18T23:00:01;100989.13;;;-4.17;100.00
64292;BME280;50628;51.008;13.658;2022-12-18T23:05:08;100996.75;;;-3.83;100.00
64292;BME280;50628;51.008;13.658;2022-12-18T23:15:15;100974.72;;;-4.07;100.00
64292;BME280;50628;51.008;13.658;2022-12-18T23:20:18;100958.59;;;-4.01;100.00
64292;BME280;50628;51.008;13.658;2022-12-18T23:25:20;100950.16;;;-4.32;100.00
64292;BME280;50628;51.008;13.658;2022-12-18T23:30:22;100936.59;;;-4.35;100.00
64292;BME280;50628;51.008;13.658;2022-12-18T23:35:25;100926.44;;;-4.30;100.00
64292;BME280;50628;51.008;13.658;2022-12-18T23:40:28;100912.00;;;-4.26;100.00
64292;BME280;50628;51.008;13.658;2022-12-18T23:45:30;100899.31;;;-4.40;100.00
64292;BME280;50628;51.008;13.658;2022-12-18T23:50:34;100916.25;;;-4.30;100.00
64292;BME280;50628;51.008;13.658;2022-12-18T23:55:37;100895.91;;;-4.28;100.00
